Energy Champion — MJUZ7 — position and weather

sailwx.info

Track history (hours):
 
Tides and Currents Weather Stations Pressure Air Temp Water Temp Dewpoint Dewpoint Depression Visibility Wind Speed Wind Dir Waves Ship Positions

Energy Champion

Last reported at 2015-Jan-19 22:18 UTC. Time now 2015-Jan-27 10:27 UTC.
Position N 50°17' W 001°22'.

Length 228 m; draft 11.8 m.

Type: Tanker. MMSI: 235009420.

Date/timePositionNaut miles runAvg speedWind from/ knotsBaromVisibWave heightAir tempDewpointWater temp
2015-Jan-19 22:18N 50°17' W 001°22'2011.2
2015-Jan-19 20:31N 50°24' W 000°53'10 9.8
2015-Jan-19 19:31N 50°26' W 000°38'1010.3
2015-Jan-19 18:30N 50°27' W 000°21'2512.2
2015-Jan-19 16:27N 50°34' E 000°16'1213.8
2015-Jan-19 15:34N 50°37' E 000°35'1413.8
2015-Jan-19 14:34N 50°45' E 000°53'1413.0
2015-Jan-19 13:31N 50°52' E 001°11'1111.6
2015-Jan-19 12:34N 50°59' E 001°25'1010.2
2015-Jan-19 11:33N 51°07' E 001°35'1010.3
2015-Jan-19 10:33N 51°14' E 001°47'1211.8
2015-Jan-19 09:34N 51°24' E 001°58'1111.4
2015-Jan-19 08:34N 51°20' E 002°16'1413.2
2015-Jan-19 07:30N 51°23' E 002°38'1212.3
2015-Jan-19 06:33N 51°23' E 002°57'1313.1
2015-Jan-19 05:33N 51°25' E 003°17'1313.0
2015-Jan-19 04:34N 51°26' E 003°38'1211.7
2015-Jan-19 03:33N 51°22' E 003°56'8 8.2
2015-Jan-19 02:34N 51°23' E 004°09'6 5.6
2015-Jan-19 01:33N 51°21' E 004°17'0 0.0
2015-Jan-19 00:34N 51°21' E 004°17'4 4.0
2015-Jan-18 23:33N 51°17' E 004°20'1 1.1
2015-Jan-18 22:31N 51°16' E 004°21'0 0.0
2015-Jan-18 21:28N 51°16' E 004°21'0 0.0
2015-Jan-18 20:25N 51°16' E 004°21'0 0.0
2015-Jan-18 19:31N 51°16' E 004°21'0 0.0
2015-Jan-18 18:31N 51°16' E 004°21'0 0.0
2015-Jan-18 17:31N 51°16' E 004°21'0 0.0
2015-Jan-18 16:28N 51°16' E 004°21'0 0.0
2015-Jan-18 15:31N 51°16' E 004°21'0 0.0
2015-Jan-18 14:31N 51°16' E 004°21'0 0.0
2015-Jan-18 13:28N 51°16' E 004°21'0 0.0
2015-Jan-18 12:31N 51°16' E 004°21'0 0.0
2015-Jan-18 11:28N 51°16' E 004°21'0 0.0
2015-Jan-18 10:31N 51°16' E 004°21'0 0.0
2015-Jan-18 09:31N 51°16' E 004°21'0 0.0
2015-Jan-18 08:33N 51°16' E 004°21'0 0.0
2015-Jan-18 07:25N 51°16' E 004°21'0 0.0
2015-Jan-18 06:31N 51°16' E 004°21'0 0.0
2015-Jan-18 05:28N 51°16' E 004°21'0 0.0
2015-Jan-18 04:28N 51°16' E 004°21'0 0.0
2015-Jan-18 03:25N 51°16' E 004°21'0 0.0
2015-Jan-18 02:25N 51°16' E 004°21'0 0.0
2015-Jan-18 01:31N 51°16' E 004°21'0 0.0
2015-Jan-18 00:31N 51°16' E 004°21'0 0.0
2015-Jan-17 23:31N 51°16' E 004°21'0 0.0
2015-Jan-17 22:31N 51°16' E 004°21'0 0.0
2015-Jan-17 21:31N 51°16' E 004°21'0 0.0
2015-Jan-17 20:28N 51°16' E 004°21'0 0.0
2015-Jan-17 19:31N 51°16' E 004°21'0 0.0
2015-Jan-17 18:31N 51°16' E 004°21'0 0.0
2015-Jan-17 17:31N 51°16' E 004°21'0 0.0
2015-Jan-17 16:31N 51°16' E 004°21'0 0.0
2015-Jan-17 15:28N 51°16' E 004°21'0 0.0
2015-Jan-17 14:31N 51°16' E 004°21'0 0.0
2015-Jan-17 13:31N 51°16' E 004°21'0 0.0
2015-Jan-17 12:28N 51°16' E 004°21'0 0.0
2015-Jan-17 11:28N 51°16' E 004°21'0 0.0
2015-Jan-17 10:28N 51°16' E 004°21'0 0.0
2015-Jan-17 09:31N 51°16' E 004°21'0 0.0
2015-Jan-17 08:28N 51°16' E 004°21'0 0.0
2015-Jan-17 07:28N 51°16' E 004°21'0 0.0
2015-Jan-17 06:31N 51°16' E 004°21'0 0.0
2015-Jan-17 05:31N 51°16' E 004°21'0 0.0
2015-Jan-17 04:31N 51°16' E 004°21'0 0.0
2015-Jan-17 03:31N 51°16' E 004°21'0 0.0
2015-Jan-17 02:31N 51°16' E 004°21'0 0.0
2015-Jan-17 01:31N 51°16' E 004°21'0 0.0
2015-Jan-17 00:31N 51°16' E 004°21'0 0.0
2015-Jan-16 23:31N 51°16' E 004°21'0 0.0
2015-Jan-16 22:28N 51°16' E 004°21'0 0.0
2015-Jan-16 21:31N 51°16' E 004°21'0 0.0
2015-Jan-16 20:32N 51°16' E 004°21'0 0.0
2015-Jan-16 19:31N 51°16' E 004°21'0 0.0
2015-Jan-16 18:31N 51°16' E 004°21'0 0.0
2015-Jan-16 17:28N 51°16' E 004°21'1 1.0
2015-Jan-16 16:33N 51°15' E 004°21'0 0.0
2015-Jan-16 15:33N 51°15' E 004°21'0 0.0
2015-Jan-16 14:33N 51°15' E 004°21'0 0.0
2015-Jan-16 13:33N 51°15' E 004°21'0 0.0
2015-Jan-16 12:33N 51°15' E 004°21'0 0.0
2015-Jan-16 11:33N 51°15' E 004°21'0 0.0
2015-Jan-16 10:33N 51°15' E 004°21'0 0.0
2015-Jan-16 09:33N 51°15' E 004°21'2 2.4
2015-Jan-16 08:34N 51°17' E 004°20'4 3.9
2015-Jan-16 07:33N 51°21' E 004°17'0 0.0
2015-Jan-16 06:34N 51°21' E 004°17'1 1.2
2015-Jan-16 05:34N 51°21' E 004°15'8 8.0
2015-Jan-16 04:34N 51°23' E 004°03'8 7.6
2015-Jan-16 03:31N 51°21' E 003°51'1010.1
2015-Jan-16 02:33N 51°26' E 003°37'7 7.1
2015-Jan-16 01:33N 51°25' E 003°26'7 6.8
2015-Jan-16 00:33N 51°25' E 003°15'7 6.9
2015-Jan-15 23:30N 51°24' E 003°04'8 8.4
2015-Jan-15 22:34N 51°22' E 002°52'8 8.0
2015-Jan-15 21:33N 51°22' E 002°39'8 8.0
2015-Jan-15 20:33N 51°21' E 002°26'10 9.4
2015-Jan-15 19:31N 51°19' E 002°11'9 9.8
2015-Jan-15 18:33N 51°24' E 001°59'8 8.2
2015-Jan-15 17:34N 51°32' E 001°54'3 3.3
2015-Jan-15 16:34N 51°34' E 001°57'2 2.4
2015-Jan-15 15:34N 51°36' E 001°59'3 2.7
2015-Jan-15 14:34N 51°39' E 002°01'3 3.4
2015-Jan-15 13:33N 51°42' E 002°04'2 1.8
2015-Jan-15 12:33N 51°43' E 002°05'1 1.4
2015-Jan-15 11:33N 51°44' E 002°07'3 3.4
2015-Jan-15 10:33N 51°47' E 002°09'4 3.8
2015-Jan-15 09:33N 51°44' E 002°07'3 2.9
2015-Jan-15 08:33N 51°46' E 002°09'3 3.3
2015-Jan-15 07:33N 51°49' E 002°12'2 2.1
2015-Jan-15 06:22N 51°52' E 002°13'3 3.0
2015-Jan-15 05:30N 51°54' E 002°14'6 6.8
2015-Jan-15 04:33N 51°48' E 002°12'2 1.9
2015-Jan-15 03:33N 51°49' E 002°13'3 2.7
2015-Jan-15 02:33N 51°52' E 002°15'6 5.0
2015-Jan-15 01:27N 51°47' E 002°09'2 2.6
2015-Jan-15 00:31N 51°48' E 002°13'6 5.0
2015-Jan-14 23:24N 51°52' E 002°20'5 3.5
2015-Jan-14 22:03N 51°49' E 002°14'3 5.2
2015-Jan-14 21:32N 51°50' E 002°10'4 3.6
2015-Jan-14 20:33N 51°46' E 002°09'2 1.7
2015-Jan-14 19:31N 51°47' E 002°12'6 6.4
2015-Jan-14 18:30N 51°53' E 002°14'4 1.7
2015-Jan-14 16:11N 51°49' E 002°14'2 1.0
2015-Jan-14 14:32N 51°48' E 002°13'1 0.7
2015-Jan-14 13:32N 51°48' E 002°13'2 1.3
2015-Jan-14 12:20N 51°48' E 002°10'2 2.0
2015-Jan-14 11:33N 51°49' E 002°13'23 5.8
2015-Jan-14 07:33N 52°11' E 002°18'8 2.8
2015-Jan-14 04:33N 52°03' E 002°13'3 2.5
2015-Jan-14 03:33N 52°05' E 002°09'4 4.1
2015-Jan-14 02:33N 52°09' E 002°08'1 0.5
2015-Jan-14 01:33N 52°09' E 002°08'9 6.0
2015-Jan-14 00:05N 52°18' E 002°08'1 1.3
2015-Jan-13 23:30N 52°17' E 002°08'1 1.5
2015-Jan-13 22:31N 52°18' E 002°10'3 2.6
2015-Jan-13 21:32N 52°15' E 002°10'3 2.9
2015-Jan-13 20:25N 52°12' E 002°08'1 1.1
2015-Jan-13 19:33N 52°11' E 002°08'7 6.9
2015-Jan-13 18:31N 52°18' E 002°10'3 2.8
2015-Jan-13 17:33N 52°16' E 002°07'2 2.1
2015-Jan-13 16:33N 52°14' E 002°06'2 1.2
2015-Jan-13 15:06N 52°12' E 002°05'0 0.6
2015-Jan-13 14:33N 52°12' E 002°06'1 0.6
2015-Jan-13 13:29N 52°12' E 002°07'2 1.9
2015-Jan-13 12:33N 52°13' E 002°05'0 0.4
2015-Jan-13 11:32N 52°13' E 002°05'1 0.2
2015-Jan-13 07:31N 52°14' E 002°06'2 0.3
2015-Jan-13 01:21N 52°12' E 002°06'6 7.0
2015-Jan-13 00:33N 52°07' E 002°10'17 4.1
2015-Jan-12 20:22N 51°50' E 002°14'1 0.4
2015-Jan-12 17:31N 51°50' E 002°12'5 5.1
2015-Jan-12 16:33N 51°55' E 002°12'5 2.1
2015-Jan-12 14:23N 51°50' E 002°12'3 1.4
2015-Jan-12 12:34N 51°49' E 002°15'2 1.7
2015-Jan-12 11:31N 51°50' E 002°14'1 0.4
2015-Jan-12 09:04N 51°50' E 002°15'2 1.0
2015-Jan-12 07:10N 51°51' E 002°13'4 2.2
2015-Jan-12 05:31N 51°48' E 002°11'3 2.5
2015-Jan-12 04:15N 51°51' E 002°12'2 2.4
2015-Jan-12 03:19N 51°49' E 002°10'2 2.2
2015-Jan-12 02:32N 51°47' E 002°10'2 1.9
2015-Jan-12 01:33N 51°45' E 002°11'2 1.5
2015-Jan-12 00:33N 51°47' E 002°11'6 1.2
2015-Jan-11 19:25N 51°53' E 002°14'3 3.1
2015-Jan-11 18:32N 51°50' E 002°14'2 1.5
2015-Jan-11 17:11N 51°50' E 002°17'2 3.0
2015-Jan-11 16:30N 51°50' E 002°14'5 4.8
2015-Jan-11 15:34N 51°47' E 002°18'3 3.4
2015-Jan-11 14:32N 51°50' E 002°15'1 1.0
2015-Jan-11 13:20N 51°49' E 002°13'2 0.8
2015-Jan-11 11:03N 51°51' E 002°14'2 2.6
2015-Jan-11 10:24N 51°51' E 002°17'2 1.7
2015-Jan-11 09:11N 51°49' E 002°16'1 2.1
2015-Jan-11 08:30N 51°50' E 002°15'1 0.6
2015-Jan-11 06:30N 51°49' E 002°16'1 1.0
2015-Jan-11 05:12N 51°51' E 002°16'3 2.6
2015-Jan-11 04:13N 51°52' E 002°20'4 3.2
2015-Jan-11 03:06N 51°49' E 002°17'2 2.2
2015-Jan-11 02:13N 51°47' E 002°15'1 1.4
2015-Jan-11 01:23N 51°47' E 002°13'2 2.0
2015-Jan-11 00:33N 51°48' E 002°12'1 0.7
2015-Jan-10 22:32N 51°47' E 002°14'2 0.8
2015-Jan-10 19:33N 51°50' E 002°15'1 0.7
2015-Jan-10 18:31N 51°50' E 002°14'3 2.7
2015-Jan-10 17:29N 51°48' E 002°11'3 3.3
2015-Jan-10 16:34N 51°45' E 002°11'2 1.7
2015-Jan-10 15:33N 51°46' E 002°09'4 3.4
2015-Jan-10 14:22N 51°49' E 002°14'6 7.7
2015-Jan-10 13:33N 51°43' E 002°08'7 7.3
2015-Jan-10 12:34N 51°38' E 002°00'9 8.7
2015-Jan-10 11:33N 51°30' E 001°56'8 8.2
2015-Jan-10 10:33N 51°24' E 002°06'5 5.4
2015-Jan-10 09:33N 51°22' E 002°14'5 4.9
2015-Jan-10 08:33N 51°22' E 002°22'5 5.3
2015-Jan-10 07:33N 51°24' E 002°30'6 5.8
2015-Jan-10 06:34N 51°26' E 002°38'1 1.0
2015-Jan-10 05:31N 51°26' E 002°37'0 0.2
2015-Jan-10 04:33N 51°25' E 002°36'0 0.1
2015-Jan-10 03:33N 51°25' E 002°36'0 0.0
2015-Jan-10 02:33N 51°25' E 002°36'0 0.0
2015-Jan-10 01:30N 51°25' E 002°36'0 0.1
2015-Jan-10 00:30N 51°25' E 002°36'0 0.0
2015-Jan-09 23:30N 51°25' E 002°36'0 0.0
2015-Jan-09 22:33N 51°25' E 002°36'  
Track history (hours):
 
Tides and Currents Weather Stations Pressure Air Temp Water Temp Dewpoint Dewpoint Depression Visibility Wind Speed Wind Dir Waves Ship Positions

Energy Champion

Last reported at 2015-Jan-19 22:18 UTC. Time now 2015-Jan-27 10:27 UTC.
Position N 50°17' W 001°22'.

Length 228 m; draft 11.8 m.

Type: Tanker. MMSI: 235009420.

Date/timePositionNaut miles runAvg speedWind from/ knotsBaromVisibWave heightAir tempDewpointWater temp
2015-Jan-19 22:18N 50°17' W 001°22'2011.2
2015-Jan-19 20:31N 50°24' W 000°53'10 9.8
2015-Jan-19 19:31N 50°26' W 000°38'1010.3
2015-Jan-19 18:30N 50°27' W 000°21'2512.2
2015-Jan-19 16:27N 50°34' E 000°16'1213.8
2015-Jan-19 15:34N 50°37' E 000°35'1413.8
2015-Jan-19 14:34N 50°45' E 000°53'1413.0
2015-Jan-19 13:31N 50°52' E 001°11'1111.6
2015-Jan-19 12:34N 50°59' E 001°25'1010.2
2015-Jan-19 11:33N 51°07' E 001°35'1010.3
2015-Jan-19 10:33N 51°14' E 001°47'1211.8
2015-Jan-19 09:34N 51°24' E 001°58'1111.4
2015-Jan-19 08:34N 51°20' E 002°16'1413.2
2015-Jan-19 07:30N 51°23' E 002°38'1212.3
2015-Jan-19 06:33N 51°23' E 002°57'1313.1
2015-Jan-19 05:33N 51°25' E 003°17'1313.0
2015-Jan-19 04:34N 51°26' E 003°38'1211.7
2015-Jan-19 03:33N 51°22' E 003°56'8 8.2
2015-Jan-19 02:34N 51°23' E 004°09'6 5.6
2015-Jan-19 01:33N 51°21' E 004°17'0 0.0
2015-Jan-19 00:34N 51°21' E 004°17'4 4.0
2015-Jan-18 23:33N 51°17' E 004°20'1 1.1
2015-Jan-18 22:31N 51°16' E 004°21'0 0.0
2015-Jan-18 21:28N 51°16' E 004°21'0 0.0
2015-Jan-18 20:25N 51°16' E 004°21'0 0.0
2015-Jan-18 19:31N 51°16' E 004°21'0 0.0
2015-Jan-18 18:31N 51°16' E 004°21'0 0.0
2015-Jan-18 17:31N 51°16' E 004°21'0 0.0
2015-Jan-18 16:28N 51°16' E 004°21'0 0.0
2015-Jan-18 15:31N 51°16' E 004°21'0 0.0
2015-Jan-18 14:31N 51°16' E 004°21'0 0.0
2015-Jan-18 13:28N 51°16' E 004°21'0 0.0
2015-Jan-18 12:31N 51°16' E 004°21'0 0.0
2015-Jan-18 11:28N 51°16' E 004°21'0 0.0
2015-Jan-18 10:31N 51°16' E 004°21'0 0.0
2015-Jan-18 09:31N 51°16' E 004°21'0 0.0
2015-Jan-18 08:33N 51°16' E 004°21'0 0.0
2015-Jan-18 07:25N 51°16' E 004°21'0 0.0
2015-Jan-18 06:31N 51°16' E 004°21'0 0.0
2015-Jan-18 05:28N 51°16' E 004°21'0 0.0
2015-Jan-18 04:28N 51°16' E 004°21'0 0.0
2015-Jan-18 03:25N 51°16' E 004°21'0 0.0
2015-Jan-18 02:25N 51°16' E 004°21'0 0.0
2015-Jan-18 01:31N 51°16' E 004°21'0 0.0
2015-Jan-18 00:31N 51°16' E 004°21'0 0.0
2015-Jan-17 23:31N 51°16' E 004°21'0 0.0
2015-Jan-17 22:31N 51°16' E 004°21'0 0.0
2015-Jan-17 21:31N 51°16' E 004°21'0 0.0
2015-Jan-17 20:28N 51°16' E 004°21'0 0.0
2015-Jan-17 19:31N 51°16' E 004°21'0 0.0
2015-Jan-17 18:31N 51°16' E 004°21'0 0.0
2015-Jan-17 17:31N 51°16' E 004°21'0 0.0
2015-Jan-17 16:31N 51°16' E 004°21'0 0.0
2015-Jan-17 15:28N 51°16' E 004°21'0 0.0
2015-Jan-17 14:31N 51°16' E 004°21'0 0.0
2015-Jan-17 13:31N 51°16' E 004°21'0 0.0
2015-Jan-17 12:28N 51°16' E 004°21'0 0.0
2015-Jan-17 11:28N 51°16' E 004°21'0 0.0
2015-Jan-17 10:28N 51°16' E 004°21'0 0.0
2015-Jan-17 09:31N 51°16' E 004°21'0 0.0
2015-Jan-17 08:28N 51°16' E 004°21'0 0.0
2015-Jan-17 07:28N 51°16' E 004°21'0 0.0
2015-Jan-17 06:31N 51°16' E 004°21'0 0.0
2015-Jan-17 05:31N 51°16' E 004°21'0 0.0
2015-Jan-17 04:31N 51°16' E 004°21'0 0.0
2015-Jan-17 03:31N 51°16' E 004°21'0 0.0
2015-Jan-17 02:31N 51°16' E 004°21'0 0.0
2015-Jan-17 01:31N 51°16' E 004°21'0 0.0
2015-Jan-17 00:31N 51°16' E 004°21'0 0.0
2015-Jan-16 23:31N 51°16' E 004°21'0 0.0
2015-Jan-16 22:28N 51°16' E 004°21'0 0.0
2015-Jan-16 21:31N 51°16' E 004°21'0 0.0
2015-Jan-16 20:32N 51°16' E 004°21'0 0.0
2015-Jan-16 19:31N 51°16' E 004°21'0 0.0
2015-Jan-16 18:31N 51°16' E 004°21'0 0.0
2015-Jan-16 17:28N 51°16' E 004°21'1 1.0
2015-Jan-16 16:33N 51°15' E 004°21'0 0.0
2015-Jan-16 15:33N 51°15' E 004°21'0 0.0
2015-Jan-16 14:33N 51°15' E 004°21'0 0.0
2015-Jan-16 13:33N 51°15' E 004°21'0 0.0
2015-Jan-16 12:33N 51°15' E 004°21'0 0.0
2015-Jan-16 11:33N 51°15' E 004°21'0 0.0
2015-Jan-16 10:33N 51°15' E 004°21'0 0.0
2015-Jan-16 09:33N 51°15' E 004°21'2 2.4
2015-Jan-16 08:34N 51°17' E 004°20'4 3.9
2015-Jan-16 07:33N 51°21' E 004°17'0 0.0
2015-Jan-16 06:34N 51°21' E 004°17'1 1.2
2015-Jan-16 05:34N 51°21' E 004°15'8 8.0
2015-Jan-16 04:34N 51°23' E 004°03'8 7.6
2015-Jan-16 03:31N 51°21' E 003°51'1010.1
2015-Jan-16 02:33N 51°26' E 003°37'7 7.1
2015-Jan-16 01:33N 51°25' E 003°26'7 6.8
2015-Jan-16 00:33N 51°25' E 003°15'7 6.9
2015-Jan-15 23:30N 51°24' E 003°04'8 8.4
2015-Jan-15 22:34N 51°22' E 002°52'8 8.0
2015-Jan-15 21:33N 51°22' E 002°39'8 8.0
2015-Jan-15 20:33N 51°21' E 002°26'10 9.4
2015-Jan-15 19:31N 51°19' E 002°11'9 9.8
2015-Jan-15 18:33N 51°24' E 001°59'8 8.2
2015-Jan-15 17:34N 51°32' E 001°54'3 3.3
2015-Jan-15 16:34N 51°34' E 001°57'2 2.4
2015-Jan-15 15:34N 51°36' E 001°59'3 2.7
2015-Jan-15 14:34N 51°39' E 002°01'3 3.4
2015-Jan-15 13:33N 51°42' E 002°04'2 1.8
2015-Jan-15 12:33N 51°43' E 002°05'1 1.4
2015-Jan-15 11:33N 51°44' E 002°07'3 3.4
2015-Jan-15 10:33N 51°47' E 002°09'4 3.8
2015-Jan-15 09:33N 51°44' E 002°07'3 2.9
2015-Jan-15 08:33N 51°46' E 002°09'3 3.3
2015-Jan-15 07:33N 51°49' E 002°12'2 2.1
2015-Jan-15 06:22N 51°52' E 002°13'3 3.0
2015-Jan-15 05:30N 51°54' E 002°14'6 6.8
2015-Jan-15 04:33N 51°48' E 002°12'2 1.9
2015-Jan-15 03:33N 51°49' E 002°13'3 2.7
2015-Jan-15 02:33N 51°52' E 002°15'6 5.0
2015-Jan-15 01:27N 51°47' E 002°09'2 2.6
2015-Jan-15 00:31N 51°48' E 002°13'6 5.0
2015-Jan-14 23:24N 51°52' E 002°20'5 3.5
2015-Jan-14 22:03N 51°49' E 002°14'3 5.2
2015-Jan-14 21:32N 51°50' E 002°10'4 3.6
2015-Jan-14 20:33N 51°46' E 002°09'2 1.7
2015-Jan-14 19:31N 51°47' E 002°12'6 6.4
2015-Jan-14 18:30N 51°53' E 002°14'4 1.7
2015-Jan-14 16:11N 51°49' E 002°14'2 1.0
2015-Jan-14 14:32N 51°48' E 002°13'1 0.7
2015-Jan-14 13:32N 51°48' E 002°13'2 1.3
2015-Jan-14 12:20N 51°48' E 002°10'2 2.0
2015-Jan-14 11:33N 51°49' E 002°13'23 5.8
2015-Jan-14 07:33N 52°11' E 002°18'8 2.8
2015-Jan-14 04:33N 52°03' E 002°13'3 2.5
2015-Jan-14 03:33N 52°05' E 002°09'4 4.1
2015-Jan-14 02:33N 52°09' E 002°08'1 0.5
2015-Jan-14 01:33N 52°09' E 002°08'9 6.0
2015-Jan-14 00:05N 52°18' E 002°08'1 1.3
2015-Jan-13 23:30N 52°17' E 002°08'1 1.5
2015-Jan-13 22:31N 52°18' E 002°10'3 2.6
2015-Jan-13 21:32N 52°15' E 002°10'3 2.9
2015-Jan-13 20:25N 52°12' E 002°08'1 1.1
2015-Jan-13 19:33N 52°11' E 002°08'7 6.9
2015-Jan-13 18:31N 52°18' E 002°10'3 2.8
2015-Jan-13 17:33N 52°16' E 002°07'2 2.1
2015-Jan-13 16:33N 52°14' E 002°06'2 1.2
2015-Jan-13 15:06N 52°12' E 002°05'0 0.6
2015-Jan-13 14:33N 52°12' E 002°06'1 0.6
2015-Jan-13 13:29N 52°12' E 002°07'2 1.9
2015-Jan-13 12:33N 52°13' E 002°05'0 0.4
2015-Jan-13 11:32N 52°13' E 002°05'1 0.2
2015-Jan-13 07:31N 52°14' E 002°06'2 0.3
2015-Jan-13 01:21N 52°12' E 002°06'6 7.0
2015-Jan-13 00:33N 52°07' E 002°10'17 4.1
2015-Jan-12 20:22N 51°50' E 002°14'1 0.4
2015-Jan-12 17:31N 51°50' E 002°12'5 5.1
2015-Jan-12 16:33N 51°55' E 002°12'5 2.1
2015-Jan-12 14:23N 51°50' E 002°12'3 1.4
2015-Jan-12 12:34N 51°49' E 002°15'2 1.7
2015-Jan-12 11:31N 51°50' E 002°14'1 0.4
2015-Jan-12 09:04N 51°50' E 002°15'2 1.0
2015-Jan-12 07:10N 51°51' E 002°13'4 2.2
2015-Jan-12 05:31N 51°48' E 002°11'3 2.5
2015-Jan-12 04:15N 51°51' E 002°12'2 2.4
2015-Jan-12 03:19N 51°49' E 002°10'2 2.2
2015-Jan-12 02:32N 51°47' E 002°10'2 1.9
2015-Jan-12 01:33N 51°45' E 002°11'2 1.5
2015-Jan-12 00:33N 51°47' E 002°11'6 1.2
2015-Jan-11 19:25N 51°53' E 002°14'3 3.1
2015-Jan-11 18:32N 51°50' E 002°14'2 1.5
2015-Jan-11 17:11N 51°50' E 002°17'2 3.0
2015-Jan-11 16:30N 51°50' E 002°14'5 4.8
2015-Jan-11 15:34N 51°47' E 002°18'3 3.4
2015-Jan-11 14:32N 51°50' E 002°15'1 1.0
2015-Jan-11 13:20N 51°49' E 002°13'2 0.8
2015-Jan-11 11:03N 51°51' E 002°14'2 2.6
2015-Jan-11 10:24N 51°51' E 002°17'2 1.7
2015-Jan-11 09:11N 51°49' E 002°16'1 2.1
2015-Jan-11 08:30N 51°50' E 002°15'1 0.6
2015-Jan-11 06:30N 51°49' E 002°16'1 1.0
2015-Jan-11 05:12N 51°51' E 002°16'3 2.6
2015-Jan-11 04:13N 51°52' E 002°20'4 3.2
2015-Jan-11 03:06N 51°49' E 002°17'2 2.2
2015-Jan-11 02:13N 51°47' E 002°15'1 1.4
2015-Jan-11 01:23N 51°47' E 002°13'2 2.0
2015-Jan-11 00:33N 51°48' E 002°12'1 0.7
2015-Jan-10 22:32N 51°47' E 002°14'2 0.8
2015-Jan-10 19:33N 51°50' E 002°15'1 0.7
2015-Jan-10 18:31N 51°50' E 002°14'3 2.7
2015-Jan-10 17:29N 51°48' E 002°11'3 3.3
2015-Jan-10 16:34N 51°45' E 002°11'2 1.7
2015-Jan-10 15:33N 51°46' E 002°09'4 3.4
2015-Jan-10 14:22N 51°49' E 002°14'6 7.7
2015-Jan-10 13:33N 51°43' E 002°08'7 7.3
2015-Jan-10 12:34N 51°38' E 002°00'9 8.7
2015-Jan-10 11:33N 51°30' E 001°56'8 8.2
2015-Jan-10 10:33N 51°24' E 002°06'5 5.4
2015-Jan-10 09:33N 51°22' E 002°14'5 4.9
2015-Jan-10 08:33N 51°22' E 002°22'5 5.3
2015-Jan-10 07:33N 51°24' E 002°30'6 5.8
2015-Jan-10 06:34N 51°26' E 002°38'1 1.0
2015-Jan-10 05:31N 51°26' E 002°37'0 0.2
2015-Jan-10 04:33N 51°25' E 002°36'0 0.1
2015-Jan-10 03:33N 51°25' E 002°36'0 0.0
2015-Jan-10 02:33N 51°25' E 002°36'0 0.0
2015-Jan-10 01:30N 51°25' E 002°36'0 0.1
2015-Jan-10 00:30N 51°25' E 002°36'0 0.0
2015-Jan-09 23:30N 51°25' E 002°36'0 0.0
2015-Jan-09 22:33N 51°25' E 002°36'  

Dump ship's entire track history